createdAt,value
2022-10-12T00:02:01.076Z,87.25
2022-10-12T00:04:27.767Z,89.47
2022-10-12T00:06:54.400Z,82.13
2022-10-12T00:09:21.028Z,84.20
2022-10-12T00:11:47.591Z,82.53
2022-10-12T00:14:14.213Z,90.25
2022-10-12T00:16:40.819Z,85.60
2022-10-12T00:19:07.426Z,93.82
2022-10-12T00:21:34.032Z,83.63
2022-10-12T00:24:01.513Z,92.78
2022-10-12T00:26:29.561Z,90.53
2022-10-12T00:29:01.401Z,85.20
2022-10-12T00:33:55.501Z,86.57
2022-10-12T00:36:25.079Z,94.95
2022-10-12T00:38:53.609Z,91.60
2022-10-12T00:41:32.424Z,90.63
2022-10-12T00:43:59.421Z,91.93
2022-10-12T00:46:31.848Z,91.70
2022-10-12T00:49:10.308Z,93.47
2022-10-12T00:51:38.986Z,95.35
2022-10-12T00:54:09.728Z,93.57
2022-10-12T00:56:40.110Z,96.28
2022-10-12T00:59:12.579Z,90.30
2022-10-12T01:01:39.628Z,95.55
2022-10-12T01:04:07.345Z,98.43
2022-10-12T01:06:35.293Z,90.45
2022-10-12T01:09:03.578Z,93.63
2022-10-12T01:11:30.430Z,93.88
2022-10-12T01:13:58.774Z,102.18
2022-10-12T01:16:34.000Z,91.80
2022-10-12T01:19:06.883Z,99.63
2022-10-12T01:21:40.953Z,88.68
2022-10-12T01:24:41.743Z,97.07
2022-10-12T01:27:23.385Z,99.80
2022-10-12T01:29:53.043Z,98.35
2022-10-12T01:32:35.134Z,92.30
2022-10-12T01:35:05.242Z,97.20
2022-10-12T01:38:09.469Z,95.82
2022-10-12T01:40:44.510Z,84.15
2022-10-12T01:43:11.447Z,97.70
2022-10-12T01:45:38.035Z,91.30
2022-10-12T01:48:05.472Z,97.53
2022-10-12T01:50:44.274Z,95.40
2022-10-12T01:53:30.601Z,95.47
2022-10-12T01:56:18.629Z,96.75
2022-10-12T01:59:14.836Z,101.38
2022-10-12T02:01:55.946Z,94.32
2022-10-12T02:04:31.481Z,91.00
2022-10-12T02:07:30.330Z,96.65
2022-10-12T02:09:59.929Z,95.10
2022-10-12T02:12:28.692Z,88.80
2022-10-12T02:14:59.605Z,89.85
2022-10-12T02:17:26.712Z,97.90
2022-10-12T02:19:58.237Z,93.57
2022-10-12T02:22:48.247Z,94.03
2022-10-12T02:25:18.904Z,92.00
2022-10-12T02:27:52.090Z,96.13
2022-10-12T02:30:21.108Z,89.47
2022-10-12T02:33:08.455Z,87.72
2022-10-12T02:35:51.011Z,90.28
2022-10-12T02:38:26.657Z,91.10
2022-10-12T02:41:00.941Z,96.60
2022-10-12T02:43:36.040Z,89.75
2022-10-12T02:46:05.755Z,98.60
2022-10-12T02:48:34.214Z,97.32
2022-10-12T02:51:02.816Z,94.22
2022-10-12T02:53:30.803Z,84.32
2022-10-12T02:56:05.852Z,91.90
2022-10-12T02:58:32.550Z,98.72
2022-10-12T03:00:59.205Z,97.00
2022-10-12T03:03:25.839Z,87.63
2022-10-12T03:05:52.446Z,85.45
2022-10-12T03:08:19.019Z,94.90
2022-10-12T03:10:45.688Z,95.15
2022-10-12T03:13:12.275Z,101.50
2022-10-12T03:15:39.046Z,103.90
2022-10-12T03:18:05.721Z,99.10
2022-10-12T03:20:32.312Z,97.82
2022-10-12T03:22:58.879Z,99.22
2022-10-12T03:25:25.599Z,100.65
2022-10-12T03:27:52.218Z,101.82
2022-10-12T03:30:18.809Z,106.05
2022-10-12T03:32:45.423Z,102.32
2022-10-12T03:35:12.094Z,103.05
2022-10-12T03:37:39.341Z,94.72
2022-10-12T03:40:07.000Z,105.95
2022-10-12T03:42:33.565Z,101.68
2022-10-12T03:45:00.232Z,108.80
2022-10-12T03:47:26.813Z,105.80
2022-10-12T03:49:53.396Z,98.03
2022-10-12T03:52:20.017Z,97.03
2022-10-12T03:54:46.621Z,108.15
2022-10-12T03:57:13.265Z,98.25
2022-10-12T03:59:39.891Z,97.85
2022-10-12T04:02:06.820Z,104.93
2022-10-12T04:04:33.341Z,100.15
2022-10-12T04:06:59.911Z,95.82
2022-10-12T04:09:26.635Z,93.22
2022-10-12T04:11:53.279Z,92.13
2022-10-12T04:14:19.850Z,102.88
2022-10-12T04:16:46.530Z,101.43
2022-10-12T04:19:13.579Z,94.13
2022-10-12T04:21:40.717Z,95.78
2022-10-12T04:24:07.684Z,89.70
2022-10-12T04:26:34.263Z,93.47
2022-10-12T04:29:00.877Z,90.90
2022-10-12T04:31:27.543Z,99.30
2022-10-12T04:33:56.979Z,91.28
2022-10-12T04:36:24.850Z,96.38
2022-10-12T04:38:51.647Z,90.43
2022-10-12T04:41:18.237Z,85.18
2022-10-12T04:43:44.872Z,97.93
2022-10-12T04:46:12.129Z,97.43
2022-10-12T04:48:38.983Z,96.22
2022-10-12T04:51:06.233Z,97.68
2022-10-12T04:53:33.066Z,93.25
2022-10-12T04:56:03.631Z,85.95
2022-10-12T04:58:30.342Z,87.82
2022-10-12T05:00:57.031Z,84.15
2022-10-12T05:03:24.268Z,92.53
2022-10-12T05:05:50.998Z,85.75
2022-10-12T05:08:18.086Z,78.05
2022-10-12T05:10:46.201Z,84.10
2022-10-12T05:13:13.855Z,79.80
2022-10-12T05:15:42.567Z,74.28
2022-10-12T05:18:09.746Z,82.40
2022-10-12T05:20:36.875Z,79.20
2022-10-12T05:23:04.208Z,76.47
2022-10-12T05:25:36.827Z,81.63
2022-10-12T05:28:03.851Z,76.82
2022-10-12T05:30:30.582Z,77.85
2022-10-12T05:32:57.185Z,79.78
2022-10-12T05:35:23.806Z,73.22
2022-10-12T05:37:50.471Z,73.95
2022-10-12T05:40:17.104Z,79.55
2022-10-12T05:42:44.763Z,83.75
2022-10-12T05:45:12.411Z,79.25
2022-10-12T05:47:40.592Z,78.63
2022-10-12T05:50:07.944Z,83.13
2022-10-12T05:52:34.551Z,79.22
2022-10-12T05:55:01.604Z,81.72
2022-10-12T05:57:28.276Z,75.50
2022-10-12T05:59:54.948Z,79.07
2022-10-12T06:02:21.891Z,67.63
2022-10-12T06:04:48.500Z,74.55
2022-10-12T06:07:15.220Z,78.00
2022-10-12T06:09:41.840Z,73.72
2022-10-12T06:12:08.515Z,75.80
2022-10-12T06:14:35.251Z,70.38
2022-10-12T06:17:01.912Z,70.10
2022-10-12T06:19:28.529Z,73.80
2022-10-12T06:21:55.128Z,76.30
2022-10-12T06:24:21.718Z,73.15
2022-10-12T06:26:50.034Z,64.00
2022-10-12T06:29:18.026Z,72.18
2022-10-12T06:31:51.198Z,74.50
2022-10-12T06:34:19.514Z,66.70
2022-10-12T06:36:48.024Z,73.05
2022-10-12T06:39:14.770Z,71.30
2022-10-12T06:41:41.738Z,72.93
2022-10-12T06:44:08.643Z,72.15
2022-10-12T06:46:35.911Z,75.72
2022-10-12T06:49:02.666Z,72.53
2022-10-12T06:51:29.508Z,71.35
2022-10-12T06:53:56.656Z,70.28
2022-10-12T06:56:24.543Z,74.85
2022-10-12T06:58:55.981Z,72.85
2022-10-12T07:01:24.564Z,75.68
2022-10-12T07:04:00.543Z,68.13
2022-10-12T07:06:28.001Z,60.15
2022-10-12T07:08:55.126Z,65.25
2022-10-12T07:11:22.364Z,72.78
2022-10-12T07:13:49.004Z,72.88
2022-10-12T07:16:16.052Z,77.10
2022-10-12T07:18:42.668Z,68.40
2022-10-12T07:21:09.255Z,68.20
2022-10-12T07:23:40.184Z,68.90
2022-10-12T07:26:09.676Z,69.05
2022-10-12T07:28:37.171Z,72.53
2022-10-12T07:31:09.692Z,67.47
2022-10-12T07:33:38.779Z,65.47
2022-10-12T07:36:15.634Z,73.38
2022-10-12T07:38:47.118Z,72.95
2022-10-12T07:41:14.544Z,74.32
2022-10-12T07:43:41.333Z,68.65
2022-10-12T07:46:08.297Z,72.30
2022-10-12T07:48:35.105Z,67.00
2022-10-12T07:51:09.966Z,70.07
2022-10-12T07:53:38.123Z,67.47
2022-10-12T07:56:07.643Z,68.43
2022-10-12T07:58:34.273Z,64.65
2022-10-12T08:01:08.368Z,67.00
2022-10-12T08:03:35.288Z,64.32
2022-10-12T08:06:12.378Z,69.03
2022-10-12T08:08:39.567Z,62.05
2022-10-12T08:11:07.086Z,64.25
2022-10-12T08:13:34.674Z,65.80
2022-10-12T08:16:02.305Z,63.65
2022-10-12T08:18:29.381Z,58.35
2022-10-12T08:20:56.130Z,58.38
2022-10-12T08:23:22.940Z,55.70
2022-10-12T08:25:56.369Z,62.22
2022-10-12T08:28:24.568Z,53.78
2022-10-12T08:30:51.478Z,53.92
2022-10-12T08:33:18.990Z,54.85
2022-10-12T08:35:47.723Z,57.45
2022-10-12T08:38:14.936Z,57.35
2022-10-12T08:41:32.301Z,60.17
2022-10-12T08:44:23.741Z,59.10
2022-10-12T08:46:57.991Z,59.08
2022-10-12T08:49:26.779Z,55.30
2022-10-12T08:51:56.745Z,54.50
2022-10-12T08:54:26.309Z,54.28
2022-10-12T08:56:56.934Z,49.60
2022-10-12T08:59:24.137Z,53.63
2022-10-12T09:02:27.691Z,51.38
2022-10-12T09:04:59.948Z,51.67
2022-10-12T09:07:31.171Z,52.90
2022-10-12T09:10:29.061Z,57.88
2022-10-12T09:13:11.572Z,56.55
2022-10-12T09:16:00.334Z,50.25
2022-10-12T09:18:41.005Z,45.80
2022-10-12T09:21:17.143Z,49.47
2022-10-12T09:23:44.653Z,56.65
2022-10-12T09:26:26.758Z,48.15
2022-10-12T09:28:58.178Z,45.20
2022-10-12T09:31:33.539Z,43.08
2022-10-12T09:34:03.931Z,36.45
2022-10-12T09:36:41.782Z,41.20
2022-10-12T09:39:26.877Z,38.08
2022-10-12T09:41:55.698Z,43.33
2022-10-12T09:44:46.487Z,43.40
2022-10-12T09:47:24.818Z,40.22
2022-10-12T09:49:53.241Z,43.17
2022-10-12T09:52:26.987Z,38.75
2022-10-12T09:54:57.475Z,32.97
2022-10-12T09:57:41.181Z,35.25
2022-10-12T10:00:26.100Z,31.02
2022-10-12T10:02:53.770Z,32.60
2022-10-12T10:05:27.892Z,32.00
2022-10-12T10:08:18.516Z,36.33
2022-10-12T10:10:55.914Z,36.10
2022-10-12T10:13:26.407Z,34.03
2022-10-12T10:16:07.031Z,31.58
2022-10-12T10:18:48.663Z,32.47
2022-10-12T10:21:25.737Z,27.45
2022-10-12T10:24:03.638Z,29.85
2022-10-12T10:26:50.072Z,25.80
2022-10-12T10:29:22.746Z,19.85
2022-10-12T10:31:51.944Z,19.25
2022-10-12T10:34:18.478Z,19.23
2022-10-12T10:36:56.237Z,17.83
2022-10-12T10:39:31.154Z,17.25
2022-10-12T10:42:10.389Z,19.10
2022-10-12T10:44:37.731Z,27.70
2022-10-12T10:47:11.389Z,37.10
2022-10-12T10:49:54.198Z,33.53
2022-10-12T10:52:26.686Z,32.63
2022-10-12T10:55:45.818Z,28.33
2022-10-12T10:58:37.798Z,28.50
2022-10-12T11:01:14.518Z,27.13
2022-10-12T11:03:51.472Z,25.13
2022-10-12T11:06:51.979Z,25.98
2022-10-12T11:09:24.734Z,25.65
2022-10-12T11:12:00.276Z,26.23
2022-10-12T11:14:37.335Z,25.55
2022-10-12T11:17:19.780Z,22.70
2022-10-12T11:20:18.889Z,24.42
2022-10-12T11:22:54.536Z,25.02
2022-10-12T11:25:29.685Z,23.15
2022-10-12T11:27:56.657Z,21.73
2022-10-12T11:30:26.939Z,24.40
2022-10-12T11:33:00.115Z,22.38
2022-10-12T11:35:30.377Z,23.38
2022-10-12T11:38:26.143Z,21.55
2022-10-12T11:43:55.060Z,19.60
2022-10-12T11:46:35.630Z,17.05
2022-10-12T11:49:11.760Z,16.63
2022-10-12T11:51:38.358Z,16.52
2022-10-12T11:54:23.557Z,15.60
2022-10-12T11:56:54.872Z,17.58
2022-10-12T11:59:44.409Z,15.70
2022-10-12T12:02:29.135Z,16.63
2022-10-12T12:04:56.668Z,15.13
2022-10-12T12:07:23.457Z,16.67
2022-10-12T12:09:51.622Z,16.92
2022-10-12T12:12:24.421Z,18.80
2022-10-12T12:14:51.024Z,17.17
2022-10-12T12:17:20.552Z,16.95
2022-10-12T12:19:52.285Z,15.07
2022-10-12T12:22:24.987Z,14.88
2022-10-12T12:24:56.576Z,17.45
2022-10-12T12:27:29.668Z,16.05
2022-10-12T12:29:58.002Z,14.38
2022-10-12T12:32:27.130Z,16.80
2022-10-12T12:35:00.674Z,15.68
2022-10-12T12:37:34.332Z,16.77
2022-10-12T12:40:01.329Z,15.80
2022-10-12T12:42:33.184Z,15.80
2022-10-12T12:45:32.898Z,18.00
2022-10-12T12:47:59.588Z,16.95
2022-10-12T12:50:40.464Z,17.95
2022-10-12T12:53:17.116Z,15.70
2022-10-12T12:56:00.675Z,15.98
2022-10-12T12:58:42.587Z,17.63
2022-10-12T13:01:37.575Z,16.48
2022-10-12T13:04:16.866Z,17.52
2022-10-12T13:07:01.822Z,20.00
2022-10-12T13:09:54.982Z,17.15
2022-10-12T13:12:32.864Z,20.48
2022-10-12T13:15:19.510Z,20.10
2022-10-12T13:18:14.543Z,18.00
2022-10-12T13:20:50.870Z,17.90
2022-10-12T13:23:24.538Z,19.55
2022-10-12T13:25:57.182Z,16.85
2022-10-12T13:28:29.262Z,17.38
2022-10-12T13:31:05.564Z,20.08
2022-10-12T13:33:59.878Z,18.77
2022-10-12T13:36:32.862Z,21.65
2022-10-12T13:39:08.152Z,20.45
2022-10-12T13:41:35.457Z,21.73
2022-10-12T13:44:07.469Z,21.05
2022-10-12T13:46:45.859Z,23.13
2022-10-12T13:49:42.642Z,24.00
2022-10-12T13:52:11.774Z,19.65
2022-10-12T13:54:48.529Z,19.33
2022-10-12T13:57:44.085Z,20.98
2022-10-12T14:00:22.474Z,19.30
2022-10-12T14:02:56.385Z,20.00
2022-10-12T14:05:25.971Z,15.90
2022-10-12T14:07:55.025Z,19.15
2022-10-12T14:10:36.116Z,16.88
2022-10-12T14:13:04.984Z,16.30
2022-10-12T14:15:39.151Z,17.27
2022-10-12T14:18:31.835Z,21.30
2022-10-12T14:21:36.601Z,18.15
2022-10-12T14:24:10.024Z,17.65
2022-10-12T14:26:41.834Z,18.65
2022-10-12T14:29:35.174Z,17.73
2022-10-12T14:32:07.430Z,19.23
2022-10-12T14:34:41.153Z,19.35
2022-10-12T14:37:16.509Z,18.05
2022-10-12T14:39:45.756Z,16.95
2022-10-12T14:42:21.695Z,16.52
2022-10-12T14:44:49.832Z,18.50
2022-10-12T14:47:25.257Z,17.02
2022-10-12T14:49:55.239Z,15.15
2022-10-12T14:52:44.238Z,15.32
2022-10-12T14:55:23.831Z,18.08
2022-10-12T14:57:52.005Z,18.42
2022-10-12T15:00:25.647Z,17.33
2022-10-12T15:02:52.594Z,16.95
2022-10-12T15:05:22.626Z,16.98
2022-10-12T15:07:49.494Z,18.27
2022-10-12T15:10:38.804Z,22.58
2022-10-12T15:13:05.861Z,17.75
2022-10-12T15:15:37.509Z,19.90
2022-10-12T15:18:04.681Z,21.40
2022-10-12T15:20:33.447Z,24.45
2022-10-12T15:23:01.229Z,31.10
2022-10-12T15:25:48.551Z,27.98
2022-10-12T15:28:15.389Z,46.00
2022-10-12T15:31:04.122Z,31.83
2022-10-12T15:33:29.807Z,27.63
2022-10-12T15:35:57.548Z,25.52
2022-10-12T15:38:24.382Z,30.38
2022-10-12T15:40:53.422Z,25.80
2022-10-12T15:43:20.590Z,25.35
2022-10-12T15:45:48.066Z,25.48
2022-10-12T15:48:14.646Z,22.92
2022-10-12T15:50:48.457Z,23.90
2022-10-12T15:53:17.951Z,22.10
2022-10-12T15:55:45.953Z,23.02
2022-10-12T15:58:12.993Z,21.13
2022-10-12T16:00:40.434Z,19.85
2022-10-12T16:03:07.118Z,22.10
2022-10-12T16:05:36.386Z,20.45
2022-10-12T16:08:06.109Z,21.20
2022-10-12T16:10:39.701Z,21.15
2022-10-12T16:13:08.822Z,21.50
2022-10-12T16:15:36.336Z,21.48
2022-10-12T16:18:05.677Z,22.13
2022-10-12T16:20:36.720Z,21.52
2022-10-12T16:23:06.269Z,21.42
2022-10-12T16:25:32.978Z,20.77
2022-10-12T16:28:00.286Z,22.90
2022-10-12T16:30:27.368Z,19.50
2022-10-12T16:32:54.718Z,20.48
2022-10-12T16:35:21.748Z,18.27
2022-10-12T16:37:49.362Z,21.42
2022-10-12T16:40:16.346Z,25.83
2022-10-12T16:42:44.632Z,20.95
2022-10-12T16:45:11.806Z,21.70
2022-10-12T16:47:42.795Z,22.80
2022-10-12T16:50:10.490Z,21.00
2022-10-12T16:52:37.931Z,23.85
2022-10-12T16:55:05.951Z,23.83
2022-10-12T16:57:33.305Z,25.25
2022-10-12T16:59:59.989Z,24.08
2022-10-12T17:02:30.311Z,23.85
2022-10-12T17:04:56.987Z,23.65
2022-10-12T17:07:24.365Z,21.42
2022-10-12T17:09:50.977Z,22.88
2022-10-12T17:12:18.928Z,26.30
2022-10-12T17:14:46.107Z,25.95
2022-10-12T17:17:14.039Z,25.13
2022-10-12T17:19:40.905Z,24.13
2022-10-12T17:22:10.868Z,24.67
2022-10-12T17:24:39.431Z,27.48
2022-10-12T17:27:09.747Z,20.92
2022-10-12T17:29:36.625Z,26.33
2022-10-12T17:32:05.567Z,23.10
2022-10-12T17:34:34.561Z,24.58
2022-10-12T17:37:03.968Z,26.45
2022-10-12T17:39:34.085Z,27.48
2022-10-12T17:42:01.539Z,26.10
2022-10-12T17:44:28.349Z,28.70
2022-10-12T17:47:01.872Z,29.35
2022-10-12T17:49:29.832Z,27.90
2022-10-12T17:51:58.943Z,28.05
2022-10-12T17:54:28.052Z,28.23
2022-10-12T17:56:56.839Z,26.75
2022-10-12T17:59:24.634Z,31.88
2022-10-12T18:01:53.186Z,28.60
2022-10-12T18:04:20.534Z,31.55
2022-10-12T18:06:49.480Z,29.10
2022-10-12T18:09:22.880Z,30.52
2022-10-12T18:11:49.474Z,31.13
2022-10-12T18:14:16.057Z,31.13
2022-10-12T18:16:44.115Z,33.30
2022-10-12T18:19:12.517Z,35.78
2022-10-12T18:21:39.715Z,35.10
2022-10-12T18:24:16.301Z,34.95
2022-10-12T18:26:45.829Z,33.38
2022-10-12T18:29:13.239Z,34.90
2022-10-12T18:31:39.795Z,35.92
2022-10-12T18:34:07.794Z,36.88
2022-10-12T18:36:34.411Z,30.63
2022-10-12T18:39:03.842Z,35.97
2022-10-12T18:41:31.261Z,35.00
2022-10-12T18:44:00.176Z,33.10
2022-10-12T18:46:28.820Z,36.35
2022-10-12T18:48:57.050Z,35.38
2022-10-12T18:51:35.913Z,35.00
2022-10-12T18:54:04.520Z,37.58
2022-10-12T18:56:34.665Z,34.65
2022-10-12T18:59:02.261Z,36.50
2022-10-12T19:01:30.063Z,37.85
2022-10-12T19:04:00.467Z,37.88
2022-10-12T19:06:30.908Z,39.78
2022-10-12T19:08:59.415Z,40.70
2022-10-12T19:11:27.378Z,37.38
2022-10-12T19:13:59.613Z,34.88
2022-10-12T19:16:27.441Z,32.47
2022-10-12T19:19:00.456Z,31.98
2022-10-12T19:21:27.839Z,34.08
2022-10-12T19:23:55.761Z,32.65
2022-10-12T19:26:25.445Z,36.47
2022-10-12T19:28:56.489Z,37.50
2022-10-12T19:31:29.217Z,31.60
2022-10-12T19:33:59.493Z,31.02
2022-10-12T19:36:27.483Z,33.83
2022-10-12T19:39:04.869Z,35.90
2022-10-12T19:41:31.664Z,32.97
2022-10-12T19:43:59.745Z,29.92
2022-10-12T19:46:26.961Z,34.83
2022-10-12T19:48:57.604Z,34.05
2022-10-12T19:51:25.296Z,31.27
2022-10-12T19:53:57.449Z,35.58
2022-10-12T19:56:25.030Z,34.42
2022-10-12T19:58:54.430Z,37.17
2022-10-12T20:01:24.869Z,34.92
2022-10-12T20:03:52.933Z,33.53
2022-10-12T20:06:21.675Z,33.40
2022-10-12T20:08:52.429Z,31.45
2022-10-12T20:11:23.764Z,37.45
2022-10-12T20:13:53.410Z,32.70
2022-10-12T20:16:21.348Z,30.17
2022-10-12T20:18:49.329Z,33.90
2022-10-12T20:21:19.276Z,33.05
2022-10-12T20:23:46.740Z,35.38
2022-10-12T20:26:20.154Z,31.30
2022-10-12T20:28:47.196Z,32.30
2022-10-12T20:31:14.862Z,33.92
2022-10-12T20:33:41.803Z,32.47
2022-10-12T20:36:19.604Z,32.35
2022-10-12T20:38:46.196Z,35.95
2022-10-12T20:41:14.844Z,35.58
2022-10-12T20:43:41.774Z,32.58
2022-10-12T20:46:14.219Z,33.22
2022-10-12T20:48:41.906Z,35.00
2022-10-12T20:51:11.041Z,29.92
2022-10-12T20:53:38.553Z,31.02
2022-10-12T20:56:41.007Z,32.00
2022-10-12T20:59:07.556Z,32.60
2022-10-12T21:01:34.928Z,29.23
2022-10-12T21:04:01.672Z,34.10
2022-10-12T21:06:29.666Z,28.45
2022-10-12T21:08:59.932Z,32.60
2022-10-12T21:11:39.566Z,31.13
2022-10-12T21:14:06.575Z,29.27
2022-10-12T21:16:34.401Z,31.17
2022-10-12T21:19:02.099Z,27.75
2022-10-12T21:21:30.392Z,29.13
2022-10-12T21:23:59.572Z,28.63
2022-10-12T21:26:30.378Z,27.50
2022-10-12T21:28:58.863Z,29.90
2022-10-12T21:31:32.053Z,28.85
2022-10-12T21:34:02.528Z,29.77
2022-10-12T21:36:31.356Z,22.88
2022-10-12T21:38:58.218Z,28.23
2022-10-12T21:41:28.942Z,23.52
2022-10-12T21:43:56.386Z,26.13
2022-10-12T21:46:26.662Z,24.77
2022-10-12T21:48:56.309Z,26.05
2022-10-12T21:51:25.208Z,28.10
2022-10-12T21:53:52.779Z,26.50
2022-10-12T21:56:29.686Z,26.67
2022-10-12T21:58:58.758Z,25.10
2022-10-12T22:01:36.987Z,25.60
2022-10-12T22:04:11.405Z,25.58
2022-10-12T22:06:38.730Z,26.98
2022-10-12T22:09:11.919Z,28.70
2022-10-12T22:11:39.228Z,28.55
2022-10-12T22:14:08.656Z,27.85
2022-10-12T22:16:37.474Z,25.45
2022-10-12T22:19:06.763Z,25.20
2022-10-12T22:21:34.498Z,23.60
2022-10-12T22:24:02.522Z,24.17
2022-10-12T22:26:35.826Z,22.80
2022-10-12T22:29:04.819Z,23.52
2022-10-12T22:31:31.625Z,22.40
2022-10-12T22:33:58.364Z,24.75
2022-10-12T22:36:25.285Z,25.85
2022-10-12T22:38:52.337Z,23.60
2022-10-12T22:41:21.749Z,22.15
2022-10-12T22:43:50.073Z,24.15
2022-10-12T22:46:17.782Z,22.35
2022-10-12T22:48:44.573Z,25.23
2022-10-12T22:51:15.213Z,24.65
2022-10-12T22:53:41.799Z,27.83
2022-10-12T22:56:16.401Z,23.58
2022-10-12T22:58:43.820Z,23.45
2022-10-12T23:01:13.843Z,24.83
2022-10-12T23:03:40.819Z,24.05
2022-10-12T23:06:08.986Z,23.88
2022-10-12T23:08:36.205Z,27.83
2022-10-12T23:11:17.115Z,29.27
2022-10-12T23:13:44.680Z,25.58
2022-10-12T23:16:15.035Z,26.83
2022-10-12T23:18:42.171Z,26.33
2022-10-12T23:21:14.585Z,27.45
2022-10-12T23:23:42.588Z,28.15
2022-10-12T23:26:14.655Z,26.75
2022-10-12T23:28:41.544Z,27.73
2022-10-12T23:31:11.016Z,26.10
2022-10-12T23:33:37.728Z,26.13
2022-10-12T23:36:13.825Z,27.10
2022-10-12T23:38:41.885Z,28.08
2022-10-12T23:41:09.593Z,26.73
2022-10-12T23:43:36.214Z,24.83
2022-10-12T23:46:06.861Z,23.70
2022-10-12T23:48:34.383Z,25.20
2022-10-12T23:51:01.643Z,22.83
2022-10-12T23:53:28.590Z,23.35
2022-10-12T23:55:55.334Z,26.55
2022-10-12T23:58:22.551Z,28.55
